Time;durP1;ratioP1;P1;durP2;ratioP2;P2;SDS_P1;SDS_P2;PMS_P1;PMS_P2;Temp;Humidity;BMP_temperature;BMP_pressure;BME280_temperature;BME280_humidity;BME280_pressure;Samples;Min_cycle;Max_cycle;Signal;HPM_P1;HPM_P2
2021/01/14 00:00:29;;;;;;;4.43;2.10;;;6.80;99.90;;;;;;4720894;30;20044;-80
2021/01/14 00:02:56;;;;;;;5.00;2.35;;;6.80;99.90;;;;;;4722673;30;20030;-78
2021/01/14 00:05:22;;;;;;;7.25;1.90;;;6.80;99.90;;;;;;4725146;30;20541;-79
2021/01/14 00:07:49;;;;;;;3.00;2.03;;;6.80;99.90;;;;;;4725875;30;20059;-82
2021/01/14 00:10:16;;;;;;;4.97;1.73;;;6.80;99.90;;;;;;4728414;30;20044;-82
2021/01/14 00:12:43;;;;;;;4.82;1.75;;;6.90;99.90;;;;;;4727016;30;20399;-79
2021/01/14 00:15:10;;;;;;;7.78;1.60;;;6.90;99.90;;;;;;4724478;30;20597;-79
2021/01/14 00:17:37;;;;;;;2.72;1.10;;;6.90;99.90;;;;;;4727084;30;20041;-79
2021/01/14 00:20:09;;;;;;;2.35;1.20;;;7.00;99.90;;;;;;4724855;30;20490;-79
2021/01/14 00:22:36;;;;;;;1.40;0.77;;;7.00;99.90;;;;;;4728094;30;20094;-79
2021/01/14 00:25:03;;;;;;;2.17;1.10;;;7.10;99.90;;;;;;4724857;30;20456;-79
2021/01/14 00:27:30;;;;;;;1.60;0.80;;;7.10;99.90;;;;;;4723577;30;20056;-79
2021/01/14 00:29:56;;;;;;;1.80;0.70;;;7.20;99.90;;;;;;4727053;30;20119;-79
2021/01/14 00:32:22;;;;;;;2.47;1.00;;;7.20;99.90;;;;;;4725436;30;20068;-79
2021/01/14 00:34:49;;;;;;;3.30;1.45;;;7.20;99.90;;;;;;4726057;30;20051;-79
2021/01/14 00:39:59;;;;;;;5.57;1.83;;;7.10;99.90;;;;;;4726858;30;20107;-80
2021/01/14 00:42:25;;;;;;;2.70;1.30;;;6.90;99.90;;;;;;4738108;30;20028;-80
2021/01/14 00:44:51;;;;;;;4.00;1.88;;;6.80;99.90;;;;;;4762408;30;20091;-80
2021/01/14 00:47:17;;;;;;;2.38;1.25;;;6.60;99.90;;;;;;4734370;30;20044;-80
2021/01/14 00:49:43;;;;;;;3.22;1.90;;;6.50;99.90;;;;;;4731315;30;20040;-80
2021/01/14 00:52:10;;;;;;;3.35;1.45;;;6.40;99.90;;;;;;4735673;30;20036;-81
2021/01/14 00:54:40;;;;;;;4.93;1.80;;;6.30;99.90;;;;;;4743027;30;20040;-80
2021/01/14 00:57:09;;;;;;;5.40;1.95;;;6.30;99.90;;;;;;4733151;30;20568;-81
2021/01/14 00:59:38;;;;;;;3.33;2.00;;;6.30;99.90;;;;;;4720912;30;20072;-80
2021/01/14 01:02:05;;;;;;;2.95;1.70;;;6.30;99.90;;;;;;4730020;30;20445;-80
2021/01/14 01:04:31;;;;;;;2.63;1.30;;;6.30;99.90;;;;;;4750430;30;20050;-80
2021/01/14 01:06:58;;;;;;;3.92;2.13;;;6.30;99.90;;;;;;4738490;30;20029;-80
2021/01/14 01:09:24;;;;;;;4.68;2.33;;;6.30;99.90;;;;;;4733976;30;20122;-80
2021/01/14 01:11:50;;;;;;;5.57;1.80;;;6.10;99.90;;;;;;4723626;30;20032;-80
2021/01/14 01:14:16;;;;;;;4.18;2.00;;;6.00;99.90;;;;;;4737855;30;20421;-80
2021/01/14 01:16:42;;;;;;;7.80;2.17;;;6.00;99.90;;;;;;4742712;30;20036;-79
2021/01/14 01:19:08;;;;;;;4.72;1.67;;;5.90;99.90;;;;;;4717524;30;20038;-80
2021/01/14 01:21:34;;;;;;;4.63;1.95;;;5.70;99.90;;;;;;4732074;30;20060;-80
2021/01/14 01:24:00;;;;;;;5.88;2.13;;;5.60;99.90;;;;;;4733524;30;20076;-81
2021/01/14 01:26:26;;;;;;;4.72;2.10;;;5.60;99.90;;;;;;4746450;30;20105;-81
2021/01/14 01:28:52;;;;;;;4.95;2.25;;;5.60;99.90;;;;;;4733897;30;20051;-80
2021/01/14 01:31:19;;;;;;;5.70;2.45;;;5.70;99.90;;;;;;4713436;30;20102;-80
2021/01/14 01:33:45;;;;;;;5.47;2.85;;;5.70;99.90;;;;;;4723452;30;20028;-80
2021/01/14 01:36:14;;;;;;;11.48;4.10;;;5.80;99.90;;;;;;4728789;30;20044;-80
2021/01/14 01:38:41;;;;;;;6.40;2.85;;;5.80;99.90;;;;;;4717716;30;20487;-80
2021/01/14 01:41:07;;;;;;;6.88;3.08;;;5.90;99.90;;;;;;4714779;30;20088;-81
2021/01/14 01:43:33;;;;;;;5.35;3.47;;;6.00;99.90;;;;;;4739165;30;20052;-81
2021/01/14 01:46:01;;;;;;;4.28;2.58;;;6.00;99.90;;;;;;4735122;30;20036;-80
2021/01/14 01:48:27;;;;;;;12.57;3.78;;;6.00;99.90;;;;;;4736988;30;20509;-80
2021/01/14 01:50:58;;;;;;;5.30;2.13;;;5.90;99.90;;;;;;4733464;30;20082;-80
2021/01/14 01:53:26;;;;;;;8.35;3.78;;;5.90;99.90;;;;;;4726345;30;20028;-80
2021/01/14 01:55:52;;;;;;;7.53;2.83;;;6.00;99.90;;;;;;4750767;30;20201;-80
2021/01/14 01:58:21;;;;;;;8.80;4.25;;;6.00;99.90;;;;;;4740209;30;20044;-80
2021/01/14 02:00:49;;;;;;;4.10;2.20;;;6.00;99.90;;;;;;4717545;30;20368;-80
2021/01/14 02:03:16;;;;;;;5.60;2.58;;;5.90;99.90;;;;;;4723878;30;20050;-80
2021/01/14 02:05:42;;;;;;;7.78;2.95;;;5.90;99.90;;;;;;4732016;30;20045;-80
2021/01/14 02:08:24;;;;;;;4.65;3.03;;;5.80;99.90;;;;;;4713604;30;20048;-81
2021/01/14 02:11:08;;;;;;;4.72;2.60;;;5.80;99.90;;;;;;4716544;30;20530;-81
2021/01/14 02:14:10;;;;;;;6.53;3.25;;;5.80;99.90;;;;;;4722387;30;20042;-80
2021/01/14 02:16:39;;;;;;;6.75;2.17;;;5.70;99.90;;;;;;4749365;30;20385;-80
2021/01/14 02:19:38;;;;;;;6.25;2.97;;;5.70;99.90;;;;;;4739687;30;20044;-80
2021/01/14 02:22:27;;;;;;;7.60;3.42;;;5.60;99.90;;;;;;4731616;30;20060;-80
2021/01/14 02:25:19;;;;;;;7.97;3.13;;;5.60;99.90;;;;;;4739533;30;20436;-80
2021/01/14 02:27:46;;;;;;;4.03;2.63;;;5.60;99.90;;;;;;4750374;30;20036;-81
2021/01/14 02:30:13;;;;;;;9.52;3.47;;;5.60;99.90;;;;;;4719419;30;20041;-79
2021/01/14 02:32:42;;;;;;;8.40;3.97;;;5.60;99.90;;;;;;4730037;30;20033;-81
2021/01/14 02:35:09;;;;;;;10.88;4.25;;;5.70;99.90;;;;;;4729181;30;20043;-81
2021/01/14 02:37:35;;;;;;;14.88;4.60;;;5.70;99.90;;;;;;4744785;30;20028;-81
2021/01/14 02:40:02;;;;;;;6.53;4.55;;;5.70;99.90;;;;;;4723171;30;20050;-80
2021/01/14 02:42:28;;;;;;;8.18;3.53;;;5.70;99.90;;;;;;4731416;30;20033;-81
2021/01/14 02:44:54;;;;;;;8.38;3.78;;;5.70;99.90;;;;;;4733700;30;20104;-80
2021/01/14 02:47:22;;;;;;;7.63;3.92;;;5.80;99.90;;;;;;4748935;30;20042;-80
2021/01/14 02:49:56;;;;;;;8.68;3.38;;;5.80;99.90;;;;;;4735760;30;20463;-80
2021/01/14 02:52:24;;;;;;;4.90;3.15;;;5.80;99.90;;;;;;4713843;30;20041;-80
2021/01/14 02:54:51;;;;;;;8.95;3.53;;;5.80;99.90;;;;;;4723808;30;20054;-80
2021/01/14 02:57:17;;;;;;;7.28;3.85;;;5.80;99.90;;;;;;4733795;30;20040;-80
2021/01/14 02:59:46;;;;;;;7.53;3.60;;;5.70;99.90;;;;;;4748732;30;20036;-80
2021/01/14 03:02:13;;;;;;;6.13;2.95;;;5.70;99.90;;;;;;4748718;30;20040;-80
2021/01/14 03:04:39;;;;;;;8.40;3.88;;;5.80;99.90;;;;;;4731794;30;20055;-79
2021/01/14 03:07:05;;;;;;;6.78;3.38;;;5.70;99.90;;;;;;4714117;30;20388;-80
2021/01/14 03:09:32;;;;;;;8.85;4.20;;;5.70;99.90;;;;;;4714850;30;20033;-80
2021/01/14 03:11:58;;;;;;;9.20;3.97;;;5.80;99.90;;;;;;4713305;30;20075;-80
2021/01/14 03:15:01;;;;;;;9.00;3.78;;;5.70;99.90;;;;;;4716507;30;20444;-81
2021/01/14 03:17:27;;;;;;;8.43;4.03;;;5.70;99.90;;;;;;4731690;30;20033;-81
2021/01/14 03:19:56;;;;;;;7.78;3.65;;;5.80;99.90;;;;;;4730951;30;20032;-81
2021/01/14 03:22:22;;;;;;;20.60;3.55;;;5.80;99.90;;;;;;4716131;30;20044;-81
2021/01/14 03:24:48;;;;;;;9.43;4.15;;;5.90;99.90;;;;;;4729305;30;20052;-81
2021/01/14 03:27:14;;;;;;;7.65;3.10;;;6.00;99.90;;;;;;4728948;30;20035;-81
2021/01/14 03:29:40;;;;;;;9.43;3.88;;;6.20;99.90;;;;;;4707529;30;20036;-81
2021/01/14 03:32:06;;;;;;;7.13;3.67;;;6.30;99.90;;;;;;4712937;30;20049;-81
2021/01/14 03:34:32;;;;;;;8.90;3.00;;;6.40;99.90;;;;;;4714410;30;20041;-81
2021/01/14 03:37:00;;;;;;;7.72;2.65;;;6.30;99.90;;;;;;4722182;30;20786;-81
2021/01/14 03:39:27;;;;;;;6.07;3.55;;;6.20;99.90;;;;;;4748001;30;20031;-80
2021/01/14 03:41:54;;;;;;;8.25;3.95;;;5.90;99.90;;;;;;4748535;30;20040;-80
2021/01/14 03:44:20;;;;;;;16.73;3.85;;;5.80;99.90;;;;;;4744367;30;20410;-80
2021/01/14 03:46:47;;;;;;;7.15;3.17;;;5.60;99.90;;;;;;4721418;30;20029;-81
2021/01/14 03:49:14;;;;;;;7.70;3.17;;;5.50;99.90;;;;;;4732468;30;20037;-80
2021/01/14 03:51:42;;;;;;;9.10;3.78;;;5.40;99.90;;;;;;4715912;30;20117;-80
2021/01/14 03:54:09;;;;;;;7.57;3.50;;;5.20;99.90;;;;;;4730400;30;20110;-81
2021/01/14 03:56:39;;;;;;;8.18;3.38;;;5.20;99.90;;;;;;4715375;30;20041;-80
2021/01/14 03:59:05;;;;;;;9.43;3.70;;;5.20;99.90;;;;;;4715056;30;20041;-80
2021/01/14 04:01:35;;;;;;;9.98;3.10;;;5.20;99.90;;;;;;4747184;30;20040;-80
2021/01/14 04:04:01;;;;;;;5.97;3.85;;;5.10;99.90;;;;;;4748933;30;20063;-80
2021/01/14 04:06:37;;;;;;;7.78;3.20;;;5.10;99.90;;;;;;4717102;30;20447;-80
2021/01/14 04:09:07;;;;;;;9.75;4.05;;;5.10;99.90;;;;;;4712061;30;20072;-80
2021/01/14 04:11:33;;;;;;;11.57;4.28;;;5.00;99.90;;;;;;4730243;30;20098;-80
2021/01/14 04:14:00;;;;;;;8.88;4.18;;;5.00;99.90;;;;;;4715489;30;20050;-80
2021/01/14 04:16:26;;;;;;;8.52;3.88;;;5.00;99.90;;;;;;4719634;30;20095;-80
2021/01/14 04:18:52;;;;;;;8.60;4.68;;;5.00;99.90;;;;;;4738803;30;20040;-80
2021/01/14 04:21:19;;;;;;;9.00;3.88;;;5.00;99.90;;;;;;4747729;30;20452;-80
2021/01/14 04:23:45;;;;;;;9.35;4.15;;;5.00;99.90;;;;;;4749209;30;20044;-80
2021/01/14 04:26:12;;;;;;;9.20;4.25;;;5.00;99.90;;;;;;4735877;30;20029;-81
2021/01/14 04:28:39;;;;;;;7.30;4.05;;;5.00;99.90;;;;;;4725582;30;20039;-81
2021/01/14 04:31:05;;;;;;;10.48;4.20;;;5.00;99.90;;;;;;4747385;30;20060;-81
2021/01/14 04:33:31;;;;;;;9.00;3.97;;;5.00;99.90;;;;;;4747865;30;20032;-81
2021/01/14 04:35:59;;;;;;;8.93;4.35;;;5.10;99.90;;;;;;4759256;30;20111;-79
2021/01/14 04:38:27;;;;;;;10.63;4.55;;;5.00;99.90;;;;;;4721051;30;20060;-80
2021/01/14 04:41:01;;;;;;;10.35;4.60;;;5.00;99.90;;;;;;4725074;30;20032;-81
2021/01/14 04:43:30;;;;;;;11.00;4.20;;;5.00;99.90;;;;;;4731368;30;20086;-79
2021/01/14 04:46:05;;;;;;;9.40;3.53;;;5.00;99.90;;;;;;4730155;30;20044;-81
2021/01/14 04:48:44;;;;;;;8.40;3.95;;;5.00;99.90;;;;;;4722857;30;20115;-80
2021/01/14 04:51:12;;;;;;;8.10;3.40;;;4.90;99.90;;;;;;4730013;30;20482;-80
2021/01/14 04:53:40;;;;;;;8.70;4.05;;;4.90;99.90;;;;;;4733095;30;20063;-80
2021/01/14 04:56:08;;;;;;;7.28;3.78;;;4.90;99.90;;;;;;4733044;30;20403;-80
2021/01/14 04:58:36;;;;;;;7.40;3.63;;;4.90;99.90;;;;;;4712770;30;20488;-80
2021/01/14 05:01:09;;;;;;;10.80;3.60;;;4.90;99.90;;;;;;4731525;30;20116;-81
2021/01/14 05:03:40;;;;;;;9.57;3.80;;;5.00;99.90;;;;;;4749802;30;20056;-80
2021/01/14 05:06:06;;;;;;;6.28;3.28;;;5.00;99.90;;;;;;4736093;30;20032;-81
2021/01/14 05:08:34;;;;;;;6.78;2.97;;;5.00;99.90;;;;;;4728441;30;20036;-80
2021/01/14 05:11:00;;;;;;;12.77;2.90;;;5.10;99.90;;;;;;4728851;30;20075;-80
2021/01/14 05:13:30;;;;;;;5.68;3.03;;;5.10;99.90;;;;;;4718409;30;20033;-80
2021/01/14 05:15:57;;;;;;;9.05;3.35;;;5.20;99.90;;;;;;4734145;30;20861;-80
2021/01/14 05:18:24;;;;;;;4.68;2.60;;;5.20;99.90;;;;;;4729583;30;20463;-80
2021/01/14 05:20:50;;;;;;;6.53;2.50;;;5.20;99.90;;;;;;4736203;30;20505;-80
2021/01/14 05:23:20;;;;;;;5.65;3.53;;;5.20;99.90;;;;;;4731394;30;20033;-80
2021/01/14 05:25:52;;;;;;;10.32;4.28;;;5.20;99.90;;;;;;4714904;30;20122;-80
2021/01/14 05:28:20;;;;;;;7.43;4.88;;;5.10;99.90;;;;;;4716564;30;20396;-80
2021/01/14 05:30:46;;;;;;;11.93;4.32;;;5.10;99.90;;;;;;4724035;30;20494;-80
2021/01/14 05:33:21;;;;;;;8.05;3.80;;;5.10;99.90;;;;;;4718514;30;20410;-81
2021/01/14 05:35:49;;;;;;;7.72;3.70;;;5.10;99.90;;;;;;4732965;30;20033;-80
2021/01/14 05:38:29;;;;;;;9.40;3.72;;;5.10;99.90;;;;;;4732724;30;20032;-81
2021/01/14 05:41:11;;;;;;;5.90;3.28;;;5.10;99.90;;;;;;4719639;30;20528;-81
2021/01/14 05:44:00;;;;;;;4.75;3.28;;;5.00;99.90;;;;;;4732237;30;20112;-81
2021/01/14 05:46:28;;;;;;;6.60;3.17;;;5.00;99.90;;;;;;4717885;30;20040;-81
2021/01/14 05:48:59;;;;;;;7.88;3.00;;;4.90;99.90;;;;;;4732419;30;20029;-81
2021/01/14 05:51:30;;;;;;;14.45;3.78;;;4.80;99.90;;;;;;4722988;30;20394;-81
2021/01/14 05:54:14;;;;;;;7.95;4.88;;;4.70;99.90;;;;;;4733966;30;20487;-81
2021/01/14 05:56:49;;;;;;;11.65;4.07;;;4.70;99.90;;;;;;4733279;30;20440;-81
2021/01/14 05:59:32;;;;;;;7.50;3.75;;;4.60;99.90;;;;;;4716644;30;20098;-81
2021/01/14 06:02:01;;;;;;;8.23;3.55;;;4.50;99.90;;;;;;4728704;30;20450;-81
2021/01/14 06:04:31;;;;;;;8.93;4.18;;;4.50;99.90;;;;;;4719046;30;20048;-82
2021/01/14 06:07:04;;;;;;;10.23;4.90;;;4.60;99.90;;;;;;4718130;30;20037;-81
2021/01/14 06:09:39;;;;;;;;;;;4.70;99.90;;;;;;4715037;30;20048;-81
2021/01/14 06:12:12;;;;;;;10.07;4.25;;;4.70;99.90;;;;;;4706574;30;19914;-82
2021/01/14 06:14:39;;;;;;;10.93;6.05;;;4.80;99.90;;;;;;4743476;30;20141;-81
2021/01/14 06:17:06;;;;;;;11.35;5.40;;;4.90;99.90;;;;;;4718515;30;20606;-81
2021/01/14 06:19:33;;;;;;;8.55;4.95;;;5.00;99.90;;;;;;4717151;30;20063;-81
2021/01/14 06:22:00;;;;;;;10.73;3.80;;;5.20;99.90;;;;;;4732307;30;20090;-81
2021/01/14 06:24:28;;;;;;;10.45;3.90;;;5.30;99.90;;;;;;4739345;30;20041;-82
2021/01/14 06:26:56;;;;;;;11.65;3.92;;;5.40;99.90;;;;;;4716249;30;20052;-82
2021/01/14 06:29:25;;;;;;;7.45;4.15;;;5.50;99.90;;;;;;4713957;30;20127;-81
2021/01/14 06:31:51;;;;;;;9.45;4.38;;;5.70;99.90;;;;;;4714031;30;20077;-81
2021/01/14 06:34:21;;;;;;;10.20;4.68;;;5.80;99.90;;;;;;4743932;30;20032;-81
2021/01/14 06:36:49;;;;;;;18.85;4.22;;;5.90;99.90;;;;;;4748928;30;20032;-81
2021/01/14 06:39:18;;;;;;;19.88;6.90;;;6.00;99.90;;;;;;4739992;30;20028;-82
2021/01/14 06:41:46;;;;;;;20.00;7.22;;;6.10;99.90;;;;;;4735411;30;20037;-81
2021/01/14 06:44:14;;;;;;;11.40;5.30;;;6.20;99.90;;;;;;4729360;30;20492;-81
2021/01/14 06:46:41;;;;;;;8.02;4.95;;;6.40;99.90;;;;;;4713792;30;20212;-81
2021/01/14 06:49:13;;;;;;;15.23;6.05;;;6.40;99.90;;;;;;4724180;30;20040;-81
2021/01/14 06:51:45;;;;;;;15.65;5.47;;;6.50;99.90;;;;;;4731541;30;20269;-82
2021/01/14 06:54:11;;;;;;;9.70;4.72;;;6.60;99.90;;;;;;4731506;30;20044;-82
2021/01/14 06:57:04;;;;;;;11.82;7.07;;;6.70;99.90;;;;;;4736617;30;20032;-82
2021/01/14 06:59:30;;;;;;;25.52;7.60;;;6.70;99.90;;;;;;4737708;30;20033;-82
2021/01/14 07:02:34;;;;;;;10.57;5.82;;;6.80;99.90;;;;;;4731075;30;20474;-82
2021/01/14 07:05:05;;;;;;;8.90;3.83;;;6.80;99.90;;;;;;4739031;30;20056;-81
2021/01/14 07:07:48;;;;;;;10.80;3.88;;;6.80;99.90;;;;;;4730799;30;20563;-82
2021/01/14 07:10:16;;;;;;;7.05;3.35;;;6.90;99.90;;;;;;4726855;30;20037;-81
2021/01/14 07:12:46;;;;;;;8.73;3.20;;;6.90;99.90;;;;;;4728312;30;20032;-81
2021/01/14 07:15:17;;;;;;;5.38;3.47;;;6.90;99.90;;;;;;4728636;30;20037;-82
2021/01/14 07:17:45;;;;;;;7.47;2.80;;;6.90;99.90;;;;;;4713446;30;20099;-82
2021/01/14 07:20:12;;;;;;;6.90;3.40;;;6.90;99.90;;;;;;4742269;30;20127;-82
2021/01/14 07:22:54;;;;;;;4.47;2.53;;;7.00;99.90;;;;;;4730550;30;20043;-81
2021/01/14 07:25:21;;;;;;;4.80;2.90;;;7.00;99.90;;;;;;4730209;30;20045;-81
2021/01/14 07:27:49;;;;;;;4.32;2.58;;;7.00;99.90;;;;;;4731256;30;20600;-81
2021/01/14 07:30:19;;;;;;;4.55;2.50;;;7.10;99.90;;;;;;4730620;30;20127;-82
2021/01/14 07:33:08;;;;;;;6.35;2.70;;;7.20;99.90;;;;;;4735046;30;20024;-82
2021/01/14 07:35:40;;;;;;;5.72;2.53;;;7.30;99.90;;;;;;4740164;30;20110;-81
2021/01/14 07:38:10;;;;;;;6.85;3.45;;;7.40;99.90;;;;;;4726510;30;20043;-82
2021/01/14 07:40:37;;;;;;;6.80;3.13;;;7.50;99.90;;;;;;4730101;30;20040;-82
2021/01/14 07:43:06;;;;;;;6.72;2.72;;;7.50;99.90;;;;;;4733288;30;20032;-82
2021/01/14 07:45:35;;;;;;;5.45;2.53;;;7.60;99.90;;;;;;4742677;30;20044;-79
2021/01/14 07:48:23;;;;;;;4.00;2.25;;;7.70;99.90;;;;;;4729886;30;20444;-79
2021/01/14 07:50:51;;;;;;;6.22;2.78;;;7.70;99.90;;;;;;4731619;30;20033;-80
2021/01/14 07:53:18;;;;;;;5.85;2.50;;;7.80;99.90;;;;;;4733823;30;20036;-75
2021/01/14 07:55:44;;;;;;;5.25;2.42;;;7.90;99.90;;;;;;4745129;30;20036;-77
2021/01/14 07:58:15;;;;;;;9.30;2.10;;;8.00;99.90;;;;;;4729775;30;20029;-76
2021/01/14 08:00:42;;;;;;;6.18;2.58;;;8.10;99.90;;;;;;4731153;30;20050;-75
2021/01/14 08:03:15;;;;;;;8.95;3.47;;;8.20;99.90;;;;;;4731645;30;20067;-75
2021/01/14 08:05:56;;;;;;;7.85;4.50;;;8.30;99.90;;;;;;4730411;30;20083;-75
2021/01/14 08:08:34;;;;;;;12.02;5.05;;;8.30;99.90;;;;;;4721690;30;20044;-75
2021/01/14 08:11:12;;;;;;;12.70;6.10;;;8.40;99.90;;;;;;4721959;30;20045;-75
2021/01/14 08:14:00;;;;;;;11.05;5.57;;;8.50;99.90;;;;;;4720678;30;20052;-76
2021/01/14 08:16:38;;;;;;;9.75;4.20;;;8.60;99.90;;;;;;4724667;30;20109;-76
2021/01/14 08:19:16;;;;;;;9.70;3.75;;;8.60;99.90;;;;;;4721357;30;20033;-76
2021/01/14 08:22:02;;;;;;;7.88;2.83;;;8.60;99.90;;;;;;4721673;30;20519;-76
2021/01/14 08:24:41;;;;;;;4.70;2.97;;;8.70;99.90;;;;;;4721907;30;20114;-75
2021/01/14 08:27:08;;;;;;;7.65;2.88;;;8.80;99.90;;;;;;4720859;30;20040;-76
2021/01/14 08:29:50;;;;;;;4.78;2.13;;;8.90;99.90;;;;;;4721656;30;20444;-76
2021/01/14 08:32:45;;;;;;;5.10;1.65;;;9.00;99.90;;;;;;4724343;30;20180;-75
2021/01/14 08:35:20;;;;;;;3.05;1.67;;;9.10;99.90;;;;;;4725621;30;20037;-76
2021/01/14 08:37:58;;;;;;;4.03;1.90;;;9.10;99.90;;;;;;4723490;30;20062;-76
2021/01/14 08:40:25;;;;;;;8.77;3.55;;;9.20;99.90;;;;;;4725903;30;20041;-76
2021/01/14 08:43:05;;;;;;;7.35;2.63;;;9.30;99.90;;;;;;4725237;30;20060;-77
2021/01/14 08:45:52;;;;;;;7.22;2.03;;;9.30;99.90;;;;;;4729883;30;20041;-75
2021/01/14 08:48:21;;;;;;;3.85;2.03;;;9.40;99.90;;;;;;4724235;30;20033;-75
2021/01/14 08:51:02;;;;;;;3.50;1.83;;;9.50;99.90;;;;;;4724808;30;20037;-75
2021/01/14 08:53:34;;;;;;;4.88;1.88;;;9.60;99.90;;;;;;4726254;30;20056;-76
2021/01/14 08:56:05;;;;;;;4.63;1.52;;;9.70;99.90;;;;;;4725981;30;20549;-81
2021/01/14 08:58:34;;;;;;;4.07;1.30;;;9.80;99.90;;;;;;4725641;30;20056;-75
2021/01/14 09:01:00;;;;;;;2.83;1.73;;;9.90;99.90;;;;;;4724915;30;20048;-77
2021/01/14 09:03:26;;;;;;;3.35;1.55;;;10.00;99.90;;;;;;4724156;30;20033;-75
2021/01/14 09:05:54;;;;;;;5.22;1.25;;;10.10;99.90;;;;;;4730711;30;20494;-76
2021/01/14 09:08:20;;;;;;;2.92;1.60;;;10.20;99.90;;;;;;4726760;30;20474;-75
2021/01/14 09:10:48;;;;;;;2.55;1.48;;;10.30;99.90;;;;;;4727341;30;20044;-76
2021/01/14 09:13:28;;;;;;;2.95;1.30;;;10.40;99.90;;;;;;4722957;30;20414;-75
2021/01/14 09:15:56;;;;;;;2.28;1.10;;;10.40;99.90;;;;;;4724540;30;20029;-75
2021/01/14 09:18:37;;;;;;;2.80;1.20;;;10.40;99.90;;;;;;4728102;30;20041;-75
2021/01/14 09:21:04;;;;;;;4.45;1.50;;;10.50;99.90;;;;;;4724737;30;20037;-77
2021/01/14 09:23:55;;;;;;;4.18;1.95;;;10.60;99.90;;;;;;4721501;30;20052;-75
2021/01/14 09:26:21;;;;;;;4.25;2.03;;;10.50;99.90;;;;;;4724578;30;20029;-75
2021/01/14 09:28:49;;;;;;;7.45;2.17;;;10.60;99.90;;;;;;4725632;30;20044;-76
2021/01/14 09:31:17;;;;;;;2.63;1.52;;;10.60;99.90;;;;;;4722763;30;20084;-75
2021/01/14 09:33:46;;;;;;;3.38;1.20;;;10.50;99.90;;;;;;4727212;30;20133;-75
2021/01/14 09:36:19;;;;;;;3.30;1.70;;;10.60;99.90;;;;;;4726820;30;20044;-75
2021/01/14 09:38:51;;;;;;;5.13;2.63;;;10.60;99.90;;;;;;4726546;30;20044;-75
2021/01/14 09:41:26;;;;;;;7.18;2.00;;;10.70;99.90;;;;;;4722389;30;20029;-76
2021/01/14 09:43:55;;;;;;;4.32;2.80;;;10.70;99.90;;;;;;4724629;30;20064;-76
2021/01/14 09:46:23;;;;;;;4.68;2.53;;;10.90;99.90;;;;;;4719194;30;20044;-75
2021/01/14 09:48:55;;;;;;;3.28;2.17;;;11.00;99.90;;;;;;4722077;30;20483;-75
2021/01/14 09:51:22;;;;;;;3.80;1.95;;;11.10;99.90;;;;;;4725998;30;20111;-75
2021/01/14 09:53:49;;;;;;;5.88;2.00;;;11.20;99.90;;;;;;4723326;30;20127;-78
2021/01/14 09:56:19;;;;;;;3.78;2.15;;;11.30;99.90;;;;;;4725049;30;20025;-78
2021/01/14 09:58:48;;;;;;;3.25;2.05;;;11.60;99.90;;;;;;4745853;30;20052;-78
2021/01/14 10:01:17;;;;;;;6.78;2.05;;;11.80;99.90;;;;;;4722016;30;20120;-78
2021/01/14 10:03:50;;;;;;;5.28;1.80;;;11.90;99.90;;;;;;4724247;30;20127;-78
2021/01/14 10:06:19;;;;;;;7.93;2.47;;;12.00;99.90;;;;;;4719295;30;20052;-78
2021/01/14 10:08:49;;;;;;;5.13;2.30;;;12.10;99.90;;;;;;4723231;30;20399;-78
2021/01/14 10:11:19;;;;;;;3.95;2.22;;;12.20;99.90;;;;;;4720688;30;20075;-79
2021/01/14 10:13:51;;;;;;;3.63;2.28;;;12.20;99.90;;;;;;4721627;30;20115;-76
2021/01/14 10:16:24;;;;;;;4.63;2.42;;;12.40;99.90;;;;;;4721794;30;20037;-75
2021/01/14 10:18:50;;;;;;;4.78;1.80;;;12.50;99.90;;;;;;4724111;30;20570;-75
2021/01/14 10:21:24;;;;;;;5.22;2.13;;;12.60;99.90;;;;;;4722524;30;20028;-75
2021/01/14 10:23:51;;;;;;;7.53;2.28;;;12.70;99.90;;;;;;4722943;30;20051;-75
2021/01/14 10:26:29;;;;;;;6.85;2.55;;;12.80;99.90;;;;;;4726275;30;20041;-75
2021/01/14 10:28:56;;;;;;;4.15;2.42;;;12.90;99.90;;;;;;4726886;30;20486;-75
2021/01/14 10:31:38;;;;;;;4.30;1.85;;;13.10;99.90;;;;;;4725630;30;20059;-75
2021/01/14 10:34:08;;;;;;;3.55;2.30;;;13.10;99.90;;;;;;4723496;30;20542;-75
2021/01/14 10:36:49;;;;;;;5.88;2.15;;;13.00;99.90;;;;;;4724943;30;20034;-75
2021/01/14 10:39:18;;;;;;;2.67;1.90;;;13.00;99.90;;;;;;4727001;30;20033;-75
2021/01/14 10:41:45;;;;;;;6.68;2.30;;;13.10;99.90;;;;;;4722920;30;20029;-75
2021/01/14 10:44:12;;;;;;;4.40;2.08;;;13.20;99.90;;;;;;4724158;30;20040;-75
2021/01/14 10:46:41;;;;;;;5.53;2.50;;;13.30;99.90;;;;;;4723348;30;20817;-75
2021/01/14 10:49:10;;;;;;;6.32;2.55;;;13.60;99.90;;;;;;4723143;30;20044;-75
2021/01/14 10:51:37;;;;;;;7.43;3.03;;;13.60;99.90;;;;;;4724478;30;20120;-75
2021/01/14 10:54:03;;;;;;;5.45;2.50;;;14.00;99.90;;;;;;4723754;30;21350;-75
2021/01/14 10:56:29;;;;;;;6.93;3.08;;;14.00;99.90;;;;;;4723218;30;20399;-75
2021/01/14 10:58:57;;;;;;;4.72;2.33;;;14.10;99.90;;;;;;4723069;30;20041;-74
2021/01/14 11:01:24;;;;;;;4.28;2.08;;;14.20;99.90;;;;;;4727068;30;20056;-74
2021/01/14 11:03:52;;;;;;;5.20;2.30;;;14.30;99.90;;;;;;4722528;30;20041;-74
2021/01/14 11:06:32;;;;;;;3.17;1.90;;;14.40;99.90;;;;;;4718403;30;20029;-75
2021/01/14 11:09:07;;;;;;;4.60;1.83;;;14.30;99.90;;;;;;4716629;30;20028;-74
2021/01/14 11:11:34;;;;;;;13.07;2.03;;;14.40;99.90;;;;;;4722068;30;20098;-75
2021/01/14 11:14:01;;;;;;;4.63;2.05;;;14.70;99.90;;;;;;4722487;30;20040;-74
2021/01/14 11:16:27;;;;;;;3.90;1.75;;;14.80;99.90;;;;;;4720778;30;20049;-74
2021/01/14 11:18:56;;;;;;;4.13;2.10;;;14.70;99.90;;;;;;4718151;30;20036;-74
2021/01/14 11:21:30;;;;;;;4.13;2.03;;;14.60;99.90;;;;;;4725281;30;20053;-74
2021/01/14 11:23:58;;;;;;;2.92;1.70;;;14.60;99.90;;;;;;4720287;30;20154;-74
2021/01/14 11:26:24;;;;;;;5.53;1.80;;;14.60;99.90;;;;;;4716936;30;20033;-74
2021/01/14 11:28:51;;;;;;;3.47;2.08;;;14.50;99.90;;;;;;4719692;30;20425;-74
2021/01/14 11:31:19;;;;;;;4.22;1.85;;;14.60;99.90;;;;;;4724449;30;20118;-74
2021/01/14 11:33:46;;;;;;;2.50;1.92;;;14.60;99.90;;;;;;4722412;30;20044;-74
2021/01/14 11:36:14;;;;;;;4.90;1.73;;;14.60;99.90;;;;;;4720674;30;20106;-75
2021/01/14 11:38:42;;;;;;;2.45;1.70;;;14.40;99.90;;;;;;4721465;30;20068;-74
2021/01/14 11:41:09;;;;;;;4.45;2.22;;;14.50;99.90;;;;;;4725869;30;20555;-75
2021/01/14 11:43:36;;;;;;;5.00;1.60;;;14.60;99.90;;;;;;4725089;30;20391;-75
2021/01/14 11:46:02;;;;;;;5.68;1.85;;;14.60;99.90;;;;;;4723222;30;20495;-77
2021/01/14 11:48:28;;;;;;;10.82;1.70;;;14.50;99.90;;;;;;4725033;30;20037;-76
2021/01/14 11:50:55;;;;;;;3.15;1.50;;;14.60;99.90;;;;;;4723296;30;20053;-76
2021/01/14 11:53:21;;;;;;;4.80;1.75;;;14.70;99.90;;;;;;4722466;30;20045;-75
2021/01/14 11:55:47;;;;;;;5.05;1.65;;;14.80;99.90;;;;;;4721781;30;20041;-80
2021/01/14 11:58:13;;;;;;;2.47;1.30;;;14.90;99.90;;;;;;4721847;30;20032;-79
2021/01/14 12:00:39;;;;;;;6.35;2.22;;;14.90;99.90;;;;;;4720879;30;20029;-79
2021/01/14 12:03:08;;;;;;;7.20;1.58;;;15.10;99.90;;;;;;4723636;30;20033;-79
2021/01/14 12:05:35;;;;;;;5.30;2.17;;;15.20;99.90;;;;;;4722912;30;20045;-79
2021/01/14 12:08:01;;;;;;;3.85;1.65;;;15.20;99.90;;;;;;4723031;30;20123;-80
2021/01/14 12:10:28;;;;;;;3.30;1.70;;;15.30;99.90;;;;;;4711356;30;20095;-83
2021/01/14 12:12:54;;;;;;;6.18;2.35;;;15.20;99.90;;;;;;4713171;30;20545;-84
2021/01/14 12:15:21;;;;;;;8.02;2.10;;;15.40;99.90;;;;;;4714661;30;20505;-84
2021/01/14 12:17:47;;;;;;;7.53;1.80;;;15.40;99.90;;;;;;4710723;30;20044;-84
2021/01/14 12:20:13;;;;;;;5.57;1.85;;;15.50;99.90;;;;;;4725429;30;20033;-84
2021/01/14 12:22:39;;;;;;;2.10;1.63;;;15.50;99.90;;;;;;4726957;30;20128;-84
2021/01/14 12:25:08;;;;;;;5.15;2.40;;;15.60;99.90;;;;;;4727288;30;20191;-84
2021/01/14 12:27:37;;;;;;;4.25;1.42;;;15.80;99.90;;;;;;4727751;30;20045;-84
2021/01/14 12:30:04;;;;;;;7.00;2.67;;;16.00;99.90;;;;;;4725562;30;20041;-85
2021/01/14 12:32:32;;;;;;;9.25;2.00;;;16.00;99.90;;;;;;4727895;30;20045;-83
2021/01/14 12:34:58;;;;;;;4.32;1.83;;;16.10;99.90;;;;;;4724893;30;20040;-85
2021/01/14 12:37:25;;;;;;;2.92;1.45;;;16.00;99.90;;;;;;4716543;30;20488;-84
2021/01/14 12:39:50;;;;;;;6.85;2.05;;;16.10;99.90;;;;;;4722923;30;20116;-85
2021/01/14 12:42:17;;;;;;;3.90;1.45;;;16.10;99.90;;;;;;4728107;30;20107;-84
2021/01/14 12:44:43;;;;;;;7.68;1.95;;;16.30;99.90;;;;;;4731804;30;20095;-85
2021/01/14 12:47:09;;;;;;;6.78;1.67;;;16.30;99.90;;;;;;4727376;30;20044;-84
2021/01/14 12:49:35;;;;;;;3.90;1.15;;;16.10;99.90;;;;;;4728319;30;20040;-84
2021/01/14 12:52:01;;;;;;;4.10;2.15;;;16.30;99.90;;;;;;4727185;30;20124;-84
2021/01/14 12:54:27;;;;;;;9.75;2.03;;;16.50;99.90;;;;;;4727512;30;20032;-84
2021/01/14 12:56:53;;;;;;;4.38;1.50;;;16.60;99.90;;;;;;4725773;30;20028;-84
2021/01/14 12:59:19;;;;;;;6.15;1.92;;;16.80;99.90;;;;;;4723156;30;20033;-83
2021/01/14 13:01:45;;;;;;;4.25;2.17;;;16.80;99.60;;;;;;4721788;30;20056;-84
2021/01/14 13:04:11;;;;;;;5.85;2.08;;;17.10;99.90;;;;;;4718446;30;20072;-82
2021/01/14 13:06:39;;;;;;;5.57;2.00;;;17.10;99.80;;;;;;4731809;30;20037;-83
2021/01/14 13:09:07;;;;;;;4.10;1.88;;;17.20;99.00;;;;;;4721312;30;20028;-84